Latest Weather Observations for Cessnock Airport

IDN60801

Issued at 1:35 pm EDT Tuesday 23 December 2014 (issued every 30 minutes, with the page automatically refreshed every 10 minutes)

About weather observations | Map of weather stations | Latest weather observations for NSW | Other Formats
Station Details ID: 061260 Name: CESSNOCK AIRPORT AWS Lat: -32.79 Lon: 151.34 Height: 61.0 m
Data from the previous 72 hours. | See also: Recent months at Cessnock Airport
Date/Time
EDT
Temp
°C
App
Temp
°C
Dew
Point
Rel
Hum
%
Delta-T
°C
Wind Press
QNH
hPa
Press
MSL
hPa
Rain
since 9 am
mm
Dir
 
Spd
km/h
Gust
km/h
Spd
kts
Gust
kts
23/01:30pm 26.1 27.1 17.7 60 5.3 NNW 9 15 5 8 1013.1 1012.9 0.2
23/01:00pm 25.4 26.8 17.8 62 4.8 SE 7 11 4 6 1013.3 1013.1 0.2
23/12:30pm 24.9 26.0 18.1 66 4.3 SSE 9 13 5 7 1013.7 1013.5 0.2
23/12:00pm 24.4 26.0 17.9 67 4.1 SE 6 9 3 5 1014.0 1013.8 0.2
23/11:30am 23.2 24.4 17.4 70 3.6 SE 7 13 4 7 1014.1 1013.9 0.2
23/11:00am 22.9 25.5 20.4 86 1.6 ESE 7 11 4 6 1014.5 1014.3 0.2
23/10:30am 21.0 24.0 19.3 90 1.1 SW 2 7 1 4 1014.7 1014.5 0.2
23/10:00am 20.5 23.8 20.0 97 0.3 NNW 2 9 1 5 1014.9 1014.7 0.2
23/09:30am 19.4 21.0 19.1 98 0.2 NE 9 11 5 6 1014.8 1014.6 0.2
23/09:00am 19.4 21.6 19.1 98 0.2 SE 6 9 3 5 1015.1 1014.9 4.4
23/08:30am 18.9 20.9 18.7 99 0.1 SSW 6 7 3 4 1015.4 1015.2 4.2
23/08:00am 19.0 21.0 18.8 99 0.1 WSW 6 9 3 5 1015.6 1015.4 3.4
23/07:30am 19.0 21.0 18.7 98 0.2 SW 6 9 3 5 1015.3 1015.1 2.0
23/07:00am 19.1 21.1 18.8 98 0.2 WSW 6 9 3 5 1014.7 1014.5 1.4
23/06:30am 19.1 22.1 18.4 96 0.4 CALM 0 4 0 2 1014.3 1014.1 1.2
23/06:00am 19.2 20.8 18.2 94 0.6 SSE 7 9 4 5 1014.1 1013.9 0.4
23/05:30am 19.5 20.4 16.0 80 2.1 S 6 9 3 5 1014.2 1014.0 0.0
23/05:00am 19.8 20.4 15.7 77 2.4 SSE 7 11 4 6 1013.9 1013.7 0.0
23/04:30am 20.4 20.1 15.4 73 3.0 SSE 11 15 6 8 1013.5 1013.3 0.0
23/04:00am 20.7 19.7 15.7 73 3.0 SSE 15 19 8 10 1013.1 1012.9 0.0
23/03:30am 20.4 20.5 15.4 73 3.0 S 9 13 5 7 1013.3 1013.1 0.0
23/03:00am 20.4 20.5 15.6 74 2.9 S 9 13 5 7 1013.5 1013.3 0.0
23/02:30am 20.6 20.0 15.6 73 3.0 S 13 17 7 9 1013.5 1013.3 0.0
23/02:00am 20.5 20.3 15.7 74 2.9 SSW 11 13 6 7 1013.9 1013.7 0.0
23/01:30am 20.4 20.5 15.4 73 3.0 S 9 15 5 8 1013.5 1013.3 0.0
23/01:00am 21.1 21.6 15.6 71 3.3 SSE 7 11 4 6 1013.9 1013.7 0.0
23/12:30am 21.5 22.0 15.6 69 3.5 SE 7 11 4 6 1014.1 1013.9 0.0
23/12:00am 21.8 21.6 15.6 68 3.7 SE 11 17 6 9 1014.1 1013.9 0.0
 
Date/Time
EDT
Temp
°C
App
Temp
°C
Dew
Point
Rel
Hum
%
Delta-T
°C
Wind Press
QNH
hPa
Press
MSL
hPa
Rain
since 9 am
mm
Dir
 
Spd
km/h
Gust
km/h
Spd
kts
Gust
kts
22/11:30pm 22.0 21.8 15.6 67 3.8 SE 11 15 6 8 1014.5 1014.3 0.0
22/11:00pm 22.1 21.8 15.5 66 4.0 SE 11 15 6 8 1014.8 1014.6 0.0
22/10:30pm 22.3 22.3 15.2 64 4.2 SE 9 17 5 9 1015.1 1014.9 0.0
22/10:00pm 22.6 22.2 15.2 63 4.4 SE 11 17 6 9 1014.9 1014.7 0.0
22/09:30pm 22.9 21.4 15.2 62 4.6 ESE 17 24 9 13 1015.0 1014.8 0.0
22/09:00pm 23.1 22.2 14.9 60 4.9 ESE 13 20 7 11 1014.9 1014.7 0.0
22/08:30pm 23.8 22.8 15.6 60 5.0 ESE 15 22 8 12 1014.9 1014.7 0.0
22/08:00pm 24.3 23.3 15.5 58 5.3 ESE 15 24 8 13 1014.9 1014.7 0.0
22/07:30pm 24.9 24.1 16.1 58 5.4 ESE 15 22 8 12 1014.5 1014.3 0.0
22/07:00pm 25.5 24.9 16.6 58 5.5 ESE 15 22 8 12 1014.2 1014.0 0.0
22/06:30pm 26.3 24.2 16.3 54 6.2 ESE 22 32 12 17 1013.8 1013.6 0.0
22/06:00pm 27.2 25.1 16.2 51 6.8 ESE 22 32 12 17 1013.5 1013.3 0.0
22/05:30pm 28.6 25.2 15.8 45 7.9 ESE 28 39 15 21 1012.7 1012.5 0.0
22/05:00pm 29.8 26.7 15.5 42 8.8 ESE 26 39 14 21 1012.3 1012.1 0.0
22/04:30pm 30.3 27.0 14.0 37 9.8 ESE 24 35 13 19 1012.5 1012.3 0.0
22/04:00pm 30.9 28.4 14.1 36 10.2 E 20 30 11 16 1012.4 1012.2 0.0
22/03:30pm 32.3 29.3 12.0 29 12.0 ENE 19 32 10 17 1012.6 1012.4 0.0
22/03:00pm 32.2 29.7 12.4 30 11.8 E 17 32 9 17 1013.0 1012.8 0.0
22/02:30pm 31.6 29.4 13.4 33 11.0 E 17 22 9 12 1013.6 1013.4 0.0
22/02:00pm 31.2 29.9 14.8 37 10.1 NE 15 20 8 11 1014.2 1014.0 0.0
22/01:30pm 30.8 30.2 15.6 39 9.4 E 13 22 7 12 1014.7 1014.5 0.0
22/01:00pm 30.2 30.3 15.5 41 9.1 ENE 9 15 5 8 1015.3 1015.1 0.0
22/12:30pm 29.1 29.0 16.0 45 8.1 NNE 11 15 6 8 1015.6 1015.4 0.0
22/12:00pm 28.4 28.6 15.7 46 7.8 NE 9 17 5 9 1016.0 1015.8 0.0
22/11:30am 28.2 29.8 18.3 55 6.3 ENE 7 15 4 8 1016.2 1016.0 0.0
22/11:00am 26.9 27.9 17.7 57 5.8 NE 9 17 5 9 1016.3 1016.1 0.0
22/10:30am 26.0 27.2 17.4 59 5.4 E 7 15 4 8 1016.6 1016.4 0.0
22/10:00am 24.6 25.3 16.1 59 5.2 E 7 13 4 7 1016.7 1016.5 0.0
22/09:30am 24.0 25.7 16.3 62 4.7 NNE 2 9 1 5 1016.7 1016.5 0.0
22/09:00am 23.7 24.2 16.5 64 4.4 ESE 9 15 5 8 1016.7 1016.5 0.0
22/08:30am 22.6 23.4 16.4 68 3.8 ESE 7 11 4 6 1016.6 1016.4 0.0
22/08:00am 21.7 22.3 16.9 74 2.9 S 9 13 5 7 1016.4 1016.2 0.0
22/07:30am 20.5 21.4 17.5 83 1.8 SSE 9 13 5 7 1016.0 1015.8 0.0
22/07:00am 18.6 21.3 17.8 95 0.5 CALM 0 0 0 0 1015.7 1015.5 0.0
22/06:30am 17.2 19.3 17.2 100 0.0 SSW 2 7 1 4 1015.2 1015.0 0.0
22/06:00am 16.0 17.2 15.8 99 0.1 WSW 4 11 2 6 1014.9 1014.7 0.0
22/05:30am 16.0 17.9 15.7 98 0.2 CALM 0 6 0 3 1014.5 1014.3 0.0
22/05:00am 16.7 18.8 16.2 97 0.3 CALM 0 0 0 0 1014.3 1014.1 0.0
22/04:30am 16.2 16.8 15.2 94 0.6 SSW 6 9 3 5 1014.3 1014.1 0.0
22/04:00am 17.5 18.1 16.7 95 0.5 WSW 9 11 5 6 1014.4 1014.2 0.0
22/03:30am 17.6 18.2 15.9 90 1.0 S 7 9 4 5 1014.2 1014.0 0.0
22/03:00am 18.5 18.6 15.6 83 1.7 SSW 9 13 5 7 1014.5 1014.3 0.0
22/02:30am 19.0 18.6 16.2 84 1.7 SSW 13 19 7 10 1014.6 1014.4 0.0
22/02:00am 18.4 18.2 15.6 84 1.7 S 11 13 6 7 1014.3 1014.1 0.0
22/01:30am 18.7 18.6 16.1 85 1.6 SSW 11 13 6 7 1014.7 1014.5 0.0
22/01:00am 18.8 19.4 15.9 83 1.7 SSW 7 11 4 6 1015.0 1014.8 0.0
22/12:30am 19.3 19.6 16.0 81 2.0 SSW 9 11 5 6 1015.1 1014.9 0.0
22/12:00am 19.2 19.1 15.9 81 2.0 SSE 11 13 6 7 1015.1 1014.9 0.0
 
Date/Time
EDT
Temp
°C
App
Temp
°C
Dew
Point
Rel
Hum
%
Delta-T
°C
Wind Press
QNH
hPa
Press
MSL
hPa
Rain
since 9 am
mm
Dir
 
Spd
km/h
Gust
km/h
Spd
kts
Gust
kts
21/11:30pm 19.3 19.4 15.4 78 2.3 SSE 9 11 5 6 1015.4 1015.2 0.0
21/11:00pm 20.3 20.1 15.7 75 2.7 SSE 11 15 6 8 1015.8 1015.6 0.0
21/10:30pm 20.9 20.8 15.9 73 3.0 SSE 11 15 6 8 1016.0 1015.8 0.0
21/10:00pm 21.8 21.7 16.1 70 3.4 SE 11 15 6 8 1015.8 1015.6 0.0
21/09:30pm 22.1 21.6 15.9 68 3.7 ESE 13 22 7 12 1015.6 1015.4 0.0
21/09:00pm 22.9 22.4 16.0 65 4.2 ESE 13 20 7 11 1015.2 1015.0 0.0
21/08:30pm 23.7 24.1 16.2 63 4.6 E 9 22 5 12 1014.8 1014.6 0.0
21/08:00pm 24.5 24.3 16.7 61 4.8 ESE 13 20 7 11 1014.4 1014.2 0.0
21/07:30pm 25.7 23.7 16.5 56 5.7 ESE 22 35 12 19 1014.0 1013.8 0.0
21/07:00pm 26.6 25.2 17.1 56 5.9 ESE 20 30 11 16 1014.0 1013.8 0.0
21/06:30pm 27.3 26.0 16.9 53 6.5 ESE 19 28 10 15 1013.8 1013.6 0.0
21/06:00pm 28.0 26.4 16.6 50 7.1 ESE 20 30 11 16 1013.7 1013.5 0.0
21/05:30pm 28.6 26.7 16.8 48 7.4 SE 22 32 12 17 1013.6 1013.4 0.0
21/05:00pm 28.9 27.0 15.8 45 8.1 ESE 20 28 11 15 1013.7 1013.5 0.0
21/04:30pm 29.5 27.8 16.3 45 8.2 ESE 20 32 11 17 1013.9 1013.7 0.0
21/04:00pm 29.8 28.5 15.9 43 8.6 E 17 24 9 13 1014.1 1013.9 0.0
21/03:30pm 29.3 27.9 13.5 38 9.4 NE 13 20 7 11 1014.5 1014.3 0.0
21/03:00pm 29.5 28.0 12.0 34 10.2 ESE 11 20 6 11 1014.8 1014.6 0.0
21/02:30pm 29.5 27.0 12.4 35 10.0 ENE 17 24 9 13 1014.9 1014.7 0.0
21/02:00pm 28.8 27.4 13.5 39 9.1 ESE 13 22 7 12 1015.4 1015.2 0.0
21/01:30pm 28.8 27.4 13.5 39 9.1 E 13 22 7 12 1015.7 1015.5 0.0
21/01:00pm 27.8 26.3 13.0 40 8.7 E 13 26 7 14 1016.1 1015.9 0.0
21/12:30pm 27.1 26.2 12.7 41 8.4 NNE 9 15 5 8 1016.3 1016.1 0.0
21/12:00pm 27.4 26.2 15.1 47 7.5 NNE 15 24 8 13 1016.6 1016.4 0.0
21/11:30am 26.0 24.2 13.2 45 7.5 E 15 24 8 13 1016.9 1016.7 0.0
21/11:00am 25.8 24.8 14.6 50 6.7 E 13 22 7 12 1017.1 1016.9 0.0
21/10:30am 25.1 24.3 15.1 53 6.0 NNE 13 20 7 11 1017.1 1016.9 0.0
21/10:00am 24.1 22.8 14.8 56 5.5 ENE 15 22 8 12 1017.5 1017.3 0.0
21/09:30am 24.2 23.2 14.6 55 5.7 ENE 13 20 7 11 1017.5 1017.3 0.0
21/09:00am 23.2 21.7 14.2 57 5.3 E 15 20 8 11 1017.7 1017.5 0.0
21/08:30am 22.9 21.8 15.2 62 4.6 E 15 22 8 12 1017.7 1017.5 0.0
21/08:00am 21.5 20.3 13.9 62 4.4 ESE 13 20 7 11 1017.5 1017.3 0.0
21/07:30am 20.6 20.3 14.3 67 3.7 SE 9 15 5 8 1017.4 1017.2 0.0
21/07:00am 18.9 19.1 14.6 76 2.5 SSE 7 11 4 6 1017.1 1016.9 0.0
21/06:30am 16.3 15.9 13.0 81 1.8 S 7 9 4 5 1016.8 1016.6 0.0
21/06:00am 15.4 15.4 14.3 93 0.6 SSW 7 7 4 4 1016.6 1016.4 0.0
21/05:30am 15.2 15.2 13.7 91 0.8 S 6 7 3 4 1016.4 1016.2 0.0
21/05:00am 14.4 13.6 11.7 84 1.5 S 7 9 4 5 1016.1 1015.9 0.0
21/04:30am 15.2 14.6 12.3 83 1.6 SSW 7 9 4 5 1016.2 1016.0 0.0
21/04:00am 15.3 14.7 12.2 82 1.7 SSW 7 11 4 6 1016.2 1016.0 0.0
21/03:30am 15.1 14.8 12.8 86 1.3 S 6 7 3 4 1016.0 1015.8 0.0
21/03:00am 14.9 14.7 12.9 88 1.1 SSW 6 7 3 4 1016.4 1016.2 0.0
21/02:30am 15.6 15.0 12.4 81 1.8 SSW 7 9 4 5 1016.6 1016.4 0.0
21/02:00am 15.6 15.1 12.2 80 1.9 S 6 7 3 4 1016.8 1016.6 0.0
21/01:30am 16.5 15.3 12.7 78 2.1 SSW 11 11 6 6 1017.0 1016.8 0.0
21/01:00am 16.4 16.1 12.6 78 2.1 S 6 9 3 5 1017.2 1017.0 0.0
21/12:30am 16.2 15.1 12.0 76 2.3 S 9 11 5 6 1017.5 1017.3 0.0
21/12:00am 16.6 15.6 12.4 76 2.3 SSW 9 13 5 7 1017.8 1017.6 0.0
 
Date/Time
EDT
Temp
°C
App
Temp
°C
Dew
Point
Rel
Hum
%
Delta-T
°C
Wind Press
QNH
hPa
Press
MSL
hPa
Rain
since 9 am
mm
Dir
 
Spd
km/h
Gust
km/h
Spd
kts
Gust
kts
20/11:30pm 16.7 15.8 12.7 77 2.2 SSW 9 11 5 6 1017.9 1017.7 0.0
20/11:00pm 16.1 15.0 12.1 77 2.2 SSW 9 11 5 6 1018.1 1017.9 0.0
20/10:30pm 16.4 15.0 12.2 76 2.3 SW 11 13 6 7 1018.1 1017.9 0.0
20/10:00pm 17.0 16.3 11.9 72 2.8 S 7 9 4 5 1018.0 1017.8 0.0
20/09:30pm 17.7 17.0 11.9 69 3.2 SSE 7 9 4 5 1017.8 1017.6 0.0
20/09:00pm 18.2 17.0 11.5 65 3.7 SSE 9 15 5 8 1017.6 1017.4 0.0
20/08:30pm 19.4 17.8 11.4 60 4.4 SE 11 15 6 8 1017.1 1016.9 0.0
20/08:00pm 20.1 18.0 11.1 56 4.9 SE 13 17 7 9 1016.8 1016.6 0.0
20/07:30pm 21.0 18.1 11.1 53 5.5 ESE 17 28 9 15 1016.3 1016.1 0.0
20/07:00pm 21.8 18.4 11.2 51 5.9 E 20 28 11 15 1016.0 1015.8 0.0
20/06:30pm 22.6 19.5 12.3 52 5.9 E 20 28 11 15 1015.5 1015.3 0.0
20/06:00pm 23.4 20.4 12.1 49 6.4 E 19 24 10 13 1014.9 1014.7 0.0
20/05:30pm 23.4 19.6 11.1 46 6.9 ESE 22 32 12 17 1014.7 1014.5 0.0
20/05:00pm 24.8 21.8 12.7 47 7.0 E 20 32 11 17 1014.5 1014.3 0.0
20/04:30pm 24.8 21.8 12.1 45 7.3 E 19 28 10 15 1014.5 1014.3 0.0
20/04:00pm 25.6 22.9 11.7 42 7.9 ENE 17 24 9 13 1014.6 1014.4 0.0
20/03:30pm 24.7 21.8 10.9 42 7.7 ENE 17 26 9 14 1015.0 1014.8 0.0
20/03:00pm 24.7 22.0 10.2 40 8.0 ENE 15 26 8 14 1015.3 1015.1 0.0
20/02:30pm 25.2 21.9 11.0 41 8.0 NE 19 22 10 12 1015.4 1015.2 0.0
20/02:00pm 24.8 22.5 13.0 47 6.9 ENE 17 24 9 13 1015.6 1015.4 0.0

Other Formats:

Comma delimited format used in spreadsheet applications
http://www.bom.gov.au/fwo/IDN60801/IDN60801.95771.axf

JavaScript Object Notation format (JSON) in row-major order
http://www.bom.gov.au/fwo/IDN60801/IDN60801.95771.json